sensor_id;sensor_type;location;lat;lon;timestamp;P1;durP1;ratioP1;P2;durP2;ratioP2
2011;SDS011;1009;51.436;6.972;2023-07-22T00:00:56;7.83;;;4.77;;
2011;SDS011;1009;51.436;6.972;2023-07-22T00:03:23;8.90;;;4.60;;
2011;SDS011;1009;51.436;6.972;2023-07-22T00:06:01;6.73;;;4.50;;
2011;SDS011;1009;51.436;6.972;2023-07-22T00:08:30;6.93;;;5.40;;
2011;SDS011;1009;51.436;6.972;2023-07-22T00:10:57;7.87;;;5.80;;
2011;SDS011;1009;51.436;6.972;2023-07-22T00:13:24;8.67;;;5.83;;
2011;SDS011;1009;51.436;6.972;2023-07-22T00:15:51;11.60;;;5.50;;
2011;SDS011;1009;51.436;6.972;2023-07-22T00:18:18;6.17;;;4.43;;
2011;SDS011;1009;51.436;6.972;2023-07-22T00:20:45;9.97;;;5.90;;
2011;SDS011;1009;51.436;6.972;2023-07-22T00:23:12;8.77;;;5.23;;
2011;SDS011;1009;51.436;6.972;2023-07-22T00:25:41;8.47;;;5.70;;
2011;SDS011;1009;51.436;6.972;2023-07-22T00:28:08;4.67;;;3.90;;
2011;SDS011;1009;51.436;6.972;2023-07-22T00:30:35;10.43;;;5.00;;
2011;SDS011;1009;51.436;6.972;2023-07-22T00:33:02;8.40;;;5.20;;
2011;SDS011;1009;51.436;6.972;2023-07-22T00:35:28;7.20;;;4.53;;
2011;SDS011;1009;51.436;6.972;2023-07-22T00:37:56;9.63;;;5.80;;
2011;SDS011;1009;51.436;6.972;2023-07-22T00:40:23;8.90;;;4.70;;
2011;SDS011;1009;51.436;6.972;2023-07-22T00:42:52;7.63;;;4.57;;
2011;SDS011;1009;51.436;6.972;2023-07-22T00:45:18;10.63;;;5.40;;
2011;SDS011;1009;51.436;6.972;2023-07-22T00:47:45;12.37;;;4.90;;
2011;SDS011;1009;51.436;6.972;2023-07-22T00:50:13;7.23;;;4.47;;
2011;SDS011;1009;51.436;6.972;2023-07-22T00:52:40;6.40;;;4.70;;
2011;SDS011;1009;51.436;6.972;2023-07-22T00:55:07;8.50;;;5.43;;
2011;SDS011;1009;51.436;6.972;2023-07-22T00:57:35;7.40;;;4.47;;
2011;SDS011;1009;51.436;6.972;2023-07-22T01:00:04;8.93;;;5.20;;
2011;SDS011;1009;51.436;6.972;2023-07-22T01:02:36;11.07;;;5.70;;
2011;SDS011;1009;51.436;6.972;2023-07-22T01:05:03;7.80;;;3.60;;
2011;SDS011;1009;51.436;6.972;2023-07-22T01:07:31;5.80;;;4.37;;
2011;SDS011;1009;51.436;6.972;2023-07-22T01:09:58;6.03;;;4.23;;
2011;SDS011;1009;51.436;6.972;2023-07-22T01:12:25;7.20;;;4.90;;
2011;SDS011;1009;51.436;6.972;2023-07-22T01:14:52;8.40;;;5.37;;
2011;SDS011;1009;51.436;6.972;2023-07-22T01:17:20;10.10;;;4.70;;
2011;SDS011;1009;51.436;6.972;2023-07-22T01:19:47;6.77;;;4.23;;
2011;SDS011;1009;51.436;6.972;2023-07-22T01:22:15;8.20;;;4.60;;
2011;SDS011;1009;51.436;6.972;2023-07-22T01:24:44;6.37;;;4.53;;
2011;SDS011;1009;51.436;6.972;2023-07-22T01:27:11;6.80;;;4.63;;
2011;SDS011;1009;51.436;6.972;2023-07-22T01:29:39;7.27;;;4.27;;
2011;SDS011;1009;51.436;6.972;2023-07-22T01:32:06;5.60;;;4.30;;
2011;SDS011;1009;51.436;6.972;2023-07-22T01:34:33;7.53;;;4.60;;
2011;SDS011;1009;51.436;6.972;2023-07-22T01:37:00;10.03;;;5.70;;
2011;SDS011;1009;51.436;6.972;2023-07-22T01:39:27;7.50;;;4.40;;
2011;SDS011;1009;51.436;6.972;2023-07-22T01:41:55;8.17;;;4.97;;
2011;SDS011;1009;51.436;6.972;2023-07-22T01:44:22;8.57;;;5.27;;
2011;SDS011;1009;51.436;6.972;2023-07-22T01:46:49;6.73;;;4.63;;
2011;SDS011;1009;51.436;6.972;2023-07-22T01:49:15;6.83;;;4.40;;
2011;SDS011;1009;51.436;6.972;2023-07-22T01:51:42;6.73;;;4.50;;
2011;SDS011;1009;51.436;6.972;2023-07-22T01:54:09;7.77;;;4.40;;
2011;SDS011;1009;51.436;6.972;2023-07-22T01:56:37;11.93;;;5.50;;
2011;SDS011;1009;51.436;6.972;2023-07-22T01:59:06;7.07;;;4.50;;
2011;SDS011;1009;51.436;6.972;2023-07-22T02:01:33;7.13;;;5.10;;
2011;SDS011;1009;51.436;6.972;2023-07-22T02:04:00;8.20;;;4.70;;
2011;SDS011;1009;51.436;6.972;2023-07-22T02:06:27;7.43;;;4.90;;
2011;SDS011;1009;51.436;6.972;2023-07-22T02:08:54;9.07;;;4.60;;
2011;SDS011;1009;51.436;6.972;2023-07-22T02:11:23;7.53;;;4.90;;
2011;SDS011;1009;51.436;6.972;2023-07-22T02:13:49;7.73;;;4.70;;
2011;SDS011;1009;51.436;6.972;2023-07-22T02:16:18;7.50;;;4.90;;
2011;SDS011;1009;51.436;6.972;2023-07-22T02:18:44;8.60;;;5.20;;
2011;SDS011;1009;51.436;6.972;2023-07-22T02:21:12;9.10;;;5.10;;
2011;SDS011;1009;51.436;6.972;2023-07-22T02:23:39;7.53;;;5.73;;
2011;SDS011;1009;51.436;6.972;2023-07-22T02:26:06;7.20;;;4.77;;
2011;SDS011;1009;51.436;6.972;2023-07-22T02:28:33;11.67;;;7.00;;
2011;SDS011;1009;51.436;6.972;2023-07-22T02:31:00;8.40;;;5.50;;
2011;SDS011;1009;51.436;6.972;2023-07-22T02:33:31;10.37;;;5.40;;
2011;SDS011;1009;51.436;6.972;2023-07-22T02:35:58;9.53;;;5.57;;
2011;SDS011;1009;51.436;6.972;2023-07-22T02:38:24;7.87;;;4.90;;
2011;SDS011;1009;51.436;6.972;2023-07-22T02:40:51;10.10;;;5.40;;
2011;SDS011;1009;51.436;6.972;2023-07-22T02:43:18;9.53;;;5.60;;
2011;SDS011;1009;51.436;6.972;2023-07-22T02:45:45;10.20;;;5.57;;
2011;SDS011;1009;51.436;6.972;2023-07-22T02:48:12;7.50;;;5.13;;
2011;SDS011;1009;51.436;6.972;2023-07-22T02:50:41;7.27;;;4.50;;
2011;SDS011;1009;51.436;6.972;2023-07-22T02:53:07;11.50;;;6.50;;
2011;SDS011;1009;51.436;6.972;2023-07-22T02:55:34;9.30;;;5.47;;
2011;SDS011;1009;51.436;6.972;2023-07-22T02:58:01;10.50;;;5.57;;
2011;SDS011;1009;51.436;6.972;2023-07-22T03:00:28;7.97;;;4.87;;
2011;SDS011;1009;51.436;6.972;2023-07-22T03:02:55;9.10;;;4.47;;
2011;SDS011;1009;51.436;6.972;2023-07-22T03:05:26;13.87;;;4.53;;
2011;SDS011;1009;51.436;6.972;2023-07-22T03:07:54;7.07;;;4.40;;
2011;SDS011;1009;51.436;6.972;2023-07-22T03:10:21;10.30;;;4.90;;
2011;SDS011;1009;51.436;6.972;2023-07-22T03:12:50;7.23;;;4.83;;
2011;SDS011;1009;51.436;6.972;2023-07-22T03:15:20;6.87;;;3.67;;
2011;SDS011;1009;51.436;6.972;2023-07-22T03:17:47;6.57;;;4.20;;
2011;SDS011;1009;51.436;6.972;2023-07-22T03:20:14;6.30;;;3.87;;
2011;SDS011;1009;51.436;6.972;2023-07-22T03:22:41;8.23;;;5.07;;
2011;SDS011;1009;51.436;6.972;2023-07-22T03:25:10;5.33;;;3.70;;
2011;SDS011;1009;51.436;6.972;2023-07-22T03:27:38;7.57;;;5.03;;
2011;SDS011;1009;51.436;6.972;2023-07-22T03:30:06;6.57;;;4.10;;
2011;SDS011;1009;51.436;6.972;2023-07-22T03:32:35;8.30;;;4.60;;
2011;SDS011;1009;51.436;6.972;2023-07-22T03:35:03;7.97;;;4.80;;
2011;SDS011;1009;51.436;6.972;2023-07-22T03:37:30;10.13;;;4.30;;
2011;SDS011;1009;51.436;6.972;2023-07-22T03:40:01;6.70;;;4.10;;
2011;SDS011;1009;51.436;6.972;2023-07-22T03:42:31;7.37;;;4.47;;
2011;SDS011;1009;51.436;6.972;2023-07-22T03:44:58;8.87;;;5.03;;
2011;SDS011;1009;51.436;6.972;2023-07-22T03:47:25;5.50;;;4.13;;
2011;SDS011;1009;51.436;6.972;2023-07-22T03:49:52;6.13;;;3.60;;
2011;SDS011;1009;51.436;6.972;2023-07-22T03:52:18;7.60;;;4.17;;
2011;SDS011;1009;51.436;6.972;2023-07-22T03:54:45;7.67;;;5.60;;
2011;SDS011;1009;51.436;6.972;2023-07-22T03:57:12;6.60;;;4.53;;
2011;SDS011;1009;51.436;6.972;2023-07-22T03:59:40;7.67;;;4.73;;
2011;SDS011;1009;51.436;6.972;2023-07-22T04:02:07;7.60;;;4.10;;
2011;SDS011;1009;51.436;6.972;2023-07-22T04:04:34;10.17;;;4.20;;
2011;SDS011;1009;51.436;6.972;2023-07-22T04:07:00;8.20;;;4.80;;
2011;SDS011;1009;51.436;6.972;2023-07-22T04:09:27;8.23;;;4.37;;
2011;SDS011;1009;51.436;6.972;2023-07-22T04:11:54;8.40;;;4.80;;
2011;SDS011;1009;51.436;6.972;2023-07-22T04:14:21;9.47;;;4.33;;
2011;SDS011;1009;51.436;6.972;2023-07-22T04:16:49;8.00;;;4.83;;
2011;SDS011;1009;51.436;6.972;2023-07-22T04:19:16;9.57;;;5.23;;
2011;SDS011;1009;51.436;6.972;2023-07-22T04:21:42;6.17;;;4.27;;
2011;SDS011;1009;51.436;6.972;2023-07-22T04:24:09;7.03;;;3.97;;
2011;SDS011;1009;51.436;6.972;2023-07-22T04:26:36;7.50;;;5.33;;
2011;SDS011;1009;51.436;6.972;2023-07-22T04:29:03;11.17;;;6.00;;
2011;SDS011;1009;51.436;6.972;2023-07-22T04:31:30;11.67;;;5.37;;
2011;SDS011;1009;51.436;6.972;2023-07-22T04:33:58;10.00;;;5.30;;
2011;SDS011;1009;51.436;6.972;2023-07-22T04:36:25;7.37;;;4.97;;
2011;SDS011;1009;51.436;6.972;2023-07-22T04:38:52;7.17;;;4.53;;
2011;SDS011;1009;51.436;6.972;2023-07-22T04:41:19;8.27;;;5.07;;
2011;SDS011;1009;51.436;6.972;2023-07-22T04:43:46;8.70;;;4.20;;
2011;SDS011;1009;51.436;6.972;2023-07-22T04:46:13;8.87;;;4.70;;
2011;SDS011;1009;51.436;6.972;2023-07-22T04:48:40;6.67;;;4.70;;
2011;SDS011;1009;51.436;6.972;2023-07-22T04:51:08;7.37;;;4.80;;
2011;SDS011;1009;51.436;6.972;2023-07-22T04:53:35;6.80;;;4.40;;
2011;SDS011;1009;51.436;6.972;2023-07-22T04:56:02;7.53;;;4.60;;
2011;SDS011;1009;51.436;6.972;2023-07-22T04:58:29;6.50;;;4.90;;
2011;SDS011;1009;51.436;6.972;2023-07-22T05:00:55;10.40;;;4.20;;
2011;SDS011;1009;51.436;6.972;2023-07-22T05:03:23;8.73;;;4.90;;
2011;SDS011;1009;51.436;6.972;2023-07-22T05:05:51;5.43;;;3.83;;
2011;SDS011;1009;51.436;6.972;2023-07-22T05:08:19;6.40;;;3.57;;
2011;SDS011;1009;51.436;6.972;2023-07-22T05:10:46;7.00;;;4.00;;
2011;SDS011;1009;51.436;6.972;2023-07-22T05:13:13;7.27;;;4.43;;
2011;SDS011;1009;51.436;6.972;2023-07-22T05:15:39;7.60;;;4.77;;
2011;SDS011;1009;51.436;6.972;2023-07-22T05:18:06;8.37;;;4.10;;
2011;SDS011;1009;51.436;6.972;2023-07-22T05:20:33;8.10;;;4.23;;
2011;SDS011;1009;51.436;6.972;2023-07-22T05:22:59;6.80;;;4.30;;
2011;SDS011;1009;51.436;6.972;2023-07-22T05:25:27;7.80;;;4.80;;
2011;SDS011;1009;51.436;6.972;2023-07-22T05:27:54;7.40;;;4.20;;
2011;SDS011;1009;51.436;6.972;2023-07-22T05:30:21;7.47;;;4.50;;
2011;SDS011;1009;51.436;6.972;2023-07-22T05:32:48;7.40;;;4.80;;
2011;SDS011;1009;51.436;6.972;2023-07-22T05:35:18;7.60;;;4.43;;
2011;SDS011;1009;51.436;6.972;2023-07-22T05:37:44;7.50;;;4.80;;
2011;SDS011;1009;51.436;6.972;2023-07-22T05:40:11;7.07;;;5.17;;
2011;SDS011;1009;51.436;6.972;2023-07-22T05:42:40;5.93;;;3.80;;
2011;SDS011;1009;51.436;6.972;2023-07-22T05:45:08;8.80;;;5.00;;
2011;SDS011;1009;51.436;6.972;2023-07-22T05:47:38;8.67;;;5.67;;
2011;SDS011;1009;51.436;6.972;2023-07-22T05:50:05;8.67;;;4.63;;
2011;SDS011;1009;51.436;6.972;2023-07-22T05:52:33;9.00;;;4.63;;
2011;SDS011;1009;51.436;6.972;2023-07-22T05:54:59;9.17;;;4.37;;
2011;SDS011;1009;51.436;6.972;2023-07-22T05:57:26;8.53;;;5.73;;
2011;SDS011;1009;51.436;6.972;2023-07-22T05:59:55;8.30;;;4.57;;
2011;SDS011;1009;51.436;6.972;2023-07-22T06:02:22;8.77;;;4.90;;
2011;SDS011;1009;51.436;6.972;2023-07-22T06:04:48;7.07;;;4.13;;
2011;SDS011;1009;51.436;6.972;2023-07-22T06:07:15;8.30;;;4.77;;
2011;SDS011;1009;51.436;6.972;2023-07-22T06:09:43;8.03;;;5.70;;
2011;SDS011;1009;51.436;6.972;2023-07-22T06:12:10;8.30;;;5.77;;
2011;SDS011;1009;51.436;6.972;2023-07-22T06:14:38;7.80;;;4.37;;
2011;SDS011;1009;51.436;6.972;2023-07-22T06:17:06;6.13;;;3.90;;
2011;SDS011;1009;51.436;6.972;2023-07-22T06:19:33;8.30;;;5.27;;
2011;SDS011;1009;51.436;6.972;2023-07-22T06:21:59;8.97;;;5.40;;
2011;SDS011;1009;51.436;6.972;2023-07-22T06:24:26;7.07;;;4.90;;
2011;SDS011;1009;51.436;6.972;2023-07-22T06:26:53;9.87;;;5.57;;
2011;SDS011;1009;51.436;6.972;2023-07-22T06:29:20;10.23;;;5.20;;
2011;SDS011;1009;51.436;6.972;2023-07-22T06:31:47;6.80;;;4.37;;
2011;SDS011;1009;51.436;6.972;2023-07-22T06:34:15;6.80;;;4.70;;
2011;SDS011;1009;51.436;6.972;2023-07-22T06:36:42;7.40;;;5.13;;
2011;SDS011;1009;51.436;6.972;2023-07-22T06:39:08;8.87;;;6.13;;
2011;SDS011;1009;51.436;6.972;2023-07-22T06:41:35;6.73;;;5.40;;
2011;SDS011;1009;51.436;6.972;2023-07-22T06:44:02;7.07;;;4.83;;
2011;SDS011;1009;51.436;6.972;2023-07-22T06:46:29;8.80;;;4.80;;
2011;SDS011;1009;51.436;6.972;2023-07-22T06:48:56;9.17;;;5.50;;
2011;SDS011;1009;51.436;6.972;2023-07-22T06:51:24;7.53;;;4.60;;
2011;SDS011;1009;51.436;6.972;2023-07-22T06:53:51;8.67;;;4.27;;
2011;SDS011;1009;51.436;6.972;2023-07-22T06:56:17;6.70;;;4.20;;
2011;SDS011;1009;51.436;6.972;2023-07-22T06:58:44;6.13;;;4.70;;
2011;SDS011;1009;51.436;6.972;2023-07-22T07:01:12;8.17;;;4.83;;
2011;SDS011;1009;51.436;6.972;2023-07-22T07:03:39;5.70;;;4.57;;
2011;SDS011;1009;51.436;6.972;2023-07-22T07:06:05;8.63;;;4.30;;
2011;SDS011;1009;51.436;6.972;2023-07-22T07:08:33;10.17;;;5.33;;
2011;SDS011;1009;51.436;6.972;2023-07-22T07:11:00;8.10;;;5.10;;
2011;SDS011;1009;51.436;6.972;2023-07-22T07:13:27;8.20;;;4.33;;
2011;SDS011;1009;51.436;6.972;2023-07-22T07:15:54;9.47;;;5.37;;
2011;SDS011;1009;51.436;6.972;2023-07-22T07:18:22;7.13;;;4.70;;
2011;SDS011;1009;51.436;6.972;2023-07-22T07:20:49;9.30;;;5.57;;
2011;SDS011;1009;51.436;6.972;2023-07-22T07:23:16;7.77;;;5.03;;
2011;SDS011;1009;51.436;6.972;2023-07-22T07:25:44;8.30;;;5.00;;
2011;SDS011;1009;51.436;6.972;2023-07-22T07:28:11;8.43;;;5.03;;
2011;SDS011;1009;51.436;6.972;2023-07-22T07:30:39;8.00;;;5.37;;
2011;SDS011;1009;51.436;6.972;2023-07-22T07:33:06;7.50;;;5.53;;
2011;SDS011;1009;51.436;6.972;2023-07-22T07:35:32;7.53;;;4.80;;
2011;SDS011;1009;51.436;6.972;2023-07-22T07:37:59;6.10;;;4.60;;
2011;SDS011;1009;51.436;6.972;2023-07-22T07:40:26;7.30;;;4.90;;
2011;SDS011;1009;51.436;6.972;2023-07-22T07:42:54;8.90;;;4.93;;
2011;SDS011;1009;51.436;6.972;2023-07-22T07:45:21;10.43;;;5.50;;
2011;SDS011;1009;51.436;6.972;2023-07-22T07:47:47;9.67;;;5.10;;
2011;SDS011;1009;51.436;6.972;2023-07-22T07:50:14;6.60;;;4.00;;
2011;SDS011;1009;51.436;6.972;2023-07-22T07:52:41;5.87;;;4.17;;
2011;SDS011;1009;51.436;6.972;2023-07-22T07:55:08;6.70;;;4.83;;
2011;SDS011;1009;51.436;6.972;2023-07-22T07:57:35;7.40;;;5.00;;
2011;SDS011;1009;51.436;6.972;2023-07-22T08:00:05;8.43;;;5.20;;
2011;SDS011;1009;51.436;6.972;2023-07-22T08:02:34;7.07;;;4.53;;
2011;SDS011;1009;51.436;6.972;2023-07-22T08:05:00;8.77;;;5.63;;
2011;SDS011;1009;51.436;6.972;2023-07-22T08:07:27;7.80;;;4.80;;
2011;SDS011;1009;51.436;6.972;2023-07-22T08:09:54;6.53;;;5.30;;
2011;SDS011;1009;51.436;6.972;2023-07-22T08:12:23;8.43;;;6.60;;
2011;SDS011;1009;51.436;6.972;2023-07-22T08:14:50;5.77;;;4.27;;
2011;SDS011;1009;51.436;6.972;2023-07-22T08:17:20;8.57;;;5.10;;
2011;SDS011;1009;51.436;6.972;2023-07-22T08:19:46;8.07;;;5.60;;
2011;SDS011;1009;51.436;6.972;2023-07-22T08:22:14;8.03;;;5.23;;
2011;SDS011;1009;51.436;6.972;2023-07-22T08:24:40;8.17;;;5.33;;
2011;SDS011;1009;51.436;6.972;2023-07-22T08:27:08;8.50;;;5.60;;
2011;SDS011;1009;51.436;6.972;2023-07-22T08:29:34;7.27;;;5.20;;
2011;SDS011;1009;51.436;6.972;2023-07-22T08:32:02;7.60;;;5.17;;
2011;SDS011;1009;51.436;6.972;2023-07-22T08:34:30;9.63;;;5.60;;
2011;SDS011;1009;51.436;6.972;2023-07-22T08:36:57;7.13;;;5.03;;
2011;SDS011;1009;51.436;6.972;2023-07-22T08:39:24;7.80;;;4.57;;
2011;SDS011;1009;51.436;6.972;2023-07-22T08:41:51;9.10;;;5.00;;
2011;SDS011;1009;51.436;6.972;2023-07-22T08:44:20;6.67;;;5.50;;
2011;SDS011;1009;51.436;6.972;2023-07-22T08:46:47;6.00;;;4.07;;
2011;SDS011;1009;51.436;6.972;2023-07-22T08:49:17;6.83;;;4.77;;
2011;SDS011;1009;51.436;6.972;2023-07-22T08:51:46;6.80;;;4.53;;
2011;SDS011;1009;51.436;6.972;2023-07-22T08:54:13;10.40;;;5.20;;
2011;SDS011;1009;51.436;6.972;2023-07-22T08:56:41;8.60;;;5.37;;
2011;SDS011;1009;51.436;6.972;2023-07-22T08:59:08;5.00;;;3.97;;
2011;SDS011;1009;51.436;6.972;2023-07-22T09:01:39;6.90;;;4.40;;
2011;SDS011;1009;51.436;6.972;2023-07-22T09:04:07;6.80;;;4.20;;
2011;SDS011;1009;51.436;6.972;2023-07-22T09:06:34;6.00;;;4.47;;
2011;SDS011;1009;51.436;6.972;2023-07-22T09:09:03;7.10;;;4.60;;
2011;SDS011;1009;51.436;6.972;2023-07-22T09:11:33;6.07;;;4.30;;
2011;SDS011;1009;51.436;6.972;2023-07-22T09:14:01;5.37;;;4.00;;
2011;SDS011;1009;51.436;6.972;2023-07-22T09:16:29;5.60;;;4.43;;
2011;SDS011;1009;51.436;6.972;2023-07-22T09:18:57;7.60;;;4.60;;
2011;SDS011;1009;51.436;6.972;2023-07-22T09:21:24;7.10;;;4.73;;
2011;SDS011;1009;51.436;6.972;2023-07-22T09:23:53;6.00;;;4.37;;
2011;SDS011;1009;51.436;6.972;2023-07-22T09:26:21;8.20;;;4.60;;
2011;SDS011;1009;51.436;6.972;2023-07-22T09:28:51;7.43;;;4.57;;
2011;SDS011;1009;51.436;6.972;2023-07-22T09:31:20;6.00;;;4.03;;
2011;SDS011;1009;51.436;6.972;2023-07-22T09:33:47;5.03;;;4.17;;
2011;SDS011;1009;51.436;6.972;2023-07-22T09:36:14;5.63;;;4.37;;
2011;SDS011;1009;51.436;6.972;2023-07-22T09:38:40;4.80;;;3.70;;
2011;SDS011;1009;51.436;6.972;2023-07-22T09:41:07;5.40;;;3.67;;
2011;SDS011;1009;51.436;6.972;2023-07-22T09:43:39;7.30;;;4.00;;
2011;SDS011;1009;51.436;6.972;2023-07-22T09:46:07;5.40;;;4.03;;
2011;SDS011;1009;51.436;6.972;2023-07-22T09:48:41;7.23;;;4.03;;
2011;SDS011;1009;51.436;6.972;2023-07-22T09:51:13;5.73;;;3.60;;
2011;SDS011;1009;51.436;6.972;2023-07-22T09:53:44;5.50;;;3.20;;
2011;SDS011;1009;51.436;6.972;2023-07-22T09:56:11;4.03;;;3.07;;
2011;SDS011;1009;51.436;6.972;2023-07-22T09:58:40;4.33;;;3.17;;
2011;SDS011;1009;51.436;6.972;2023-07-22T10:01:07;6.60;;;3.97;;
2011;SDS011;1009;51.436;6.972;2023-07-22T10:03:37;4.23;;;3.40;;
2011;SDS011;1009;51.436;6.972;2023-07-22T10:06:05;3.60;;;3.00;;
2011;SDS011;1009;51.436;6.972;2023-07-22T10:08:34;3.80;;;2.90;;
2011;SDS011;1009;51.436;6.972;2023-07-22T10:11:01;4.00;;;3.07;;
2011;SDS011;1009;51.436;6.972;2023-07-22T10:13:31;4.40;;;2.77;;
2011;SDS011;1009;51.436;6.972;2023-07-22T10:16:00;6.30;;;2.90;;
2011;SDS011;1009;51.436;6.972;2023-07-22T10:18:27;3.37;;;3.07;;
2011;SDS011;1009;51.436;6.972;2023-07-22T10:20:56;4.23;;;3.27;;
2011;SDS011;1009;51.436;6.972;2023-07-22T10:23:24;4.47;;;3.00;;
2011;SDS011;1009;51.436;6.972;2023-07-22T10:25:52;4.37;;;2.90;;
2011;SDS011;1009;51.436;6.972;2023-07-22T10:28:20;4.47;;;2.93;;
2011;SDS011;1009;51.436;6.972;2023-07-22T10:30:48;4.07;;;2.93;;
2011;SDS011;1009;51.436;6.972;2023-07-22T10:33:16;3.23;;;2.63;;
2011;SDS011;1009;51.436;6.972;2023-07-22T10:35:43;3.80;;;2.50;;
2011;SDS011;1009;51.436;6.972;2023-07-22T10:38:28;4.67;;;2.33;;
2011;SDS011;1009;51.436;6.972;2023-07-22T10:40:55;3.90;;;2.30;;
2011;SDS011;1009;51.436;6.972;2023-07-22T10:43:24;3.37;;;3.07;;
2011;SDS011;1009;51.436;6.972;2023-07-22T10:45:56;3.03;;;2.53;;
2011;SDS011;1009;51.436;6.972;2023-07-22T10:48:26;3.20;;;2.10;;
2011;SDS011;1009;51.436;6.972;2023-07-22T10:51:05;2.53;;;2.07;;
2011;SDS011;1009;51.436;6.972;2023-07-22T10:53:32;2.60;;;2.10;;
2011;SDS011;1009;51.436;6.972;2023-07-22T10:56:11;2.60;;;1.67;;
2011;SDS011;1009;51.436;6.972;2023-07-22T10:58:54;2.67;;;2.40;;
2011;SDS011;1009;51.436;6.972;2023-07-22T11:01:24;2.47;;;1.80;;
2011;SDS011;1009;51.436;6.972;2023-07-22T11:04:08;3.60;;;1.90;;
2011;SDS011;1009;51.436;6.972;2023-07-22T11:06:37;2.97;;;1.97;;
2011;SDS011;1009;51.436;6.972;2023-07-22T11:09:04;3.53;;;2.10;;
2011;SDS011;1009;51.436;6.972;2023-07-22T11:11:35;4.23;;;2.23;;
2011;SDS011;1009;51.436;6.972;2023-07-22T11:14:15;3.20;;;2.10;;
2011;SDS011;1009;51.436;6.972;2023-07-22T11:16:44;1.60;;;1.10;;
2011;SDS011;1009;51.436;6.972;2023-07-22T11:19:13;2.63;;;2.00;;
2011;SDS011;1009;51.436;6.972;2023-07-22T11:21:40;2.23;;;1.70;;
2011;SDS011;1009;51.436;6.972;2023-07-22T11:24:07;2.20;;;1.43;;
2011;SDS011;1009;51.436;6.972;2023-07-22T11:26:34;2.47;;;2.10;;
2011;SDS011;1009;51.436;6.972;2023-07-22T11:29:02;3.23;;;1.80;;
2011;SDS011;1009;51.436;6.972;2023-07-22T11:31:32;2.23;;;1.80;;
2011;SDS011;1009;51.436;6.972;2023-07-22T11:34:01;5.33;;;2.10;;
2011;SDS011;1009;51.436;6.972;2023-07-22T11:36:30;2.10;;;1.90;;
2011;SDS011;1009;51.436;6.972;2023-07-22T11:39:01;2.23;;;1.97;;
2011;SDS011;1009;51.436;6.972;2023-07-22T11:41:29;3.03;;;1.60;;
2011;SDS011;1009;51.436;6.972;2023-07-22T11:43:56;3.97;;;2.03;;
2011;SDS011;1009;51.436;6.972;2023-07-22T11:46:24;2.30;;;1.57;;
2011;SDS011;1009;51.436;6.972;2023-07-22T11:48:52;2.47;;;1.60;;
2011;SDS011;1009;51.436;6.972;2023-07-22T11:51:20;2.40;;;1.50;;
2011;SDS011;1009;51.436;6.972;2023-07-22T11:53:49;2.30;;;1.83;;
2011;SDS011;1009;51.436;6.972;2023-07-22T11:56:20;2.73;;;1.50;;
2011;SDS011;1009;51.436;6.972;2023-07-22T11:58:48;2.90;;;1.83;;
2011;SDS011;1009;51.436;6.972;2023-07-22T12:01:16;2.20;;;1.53;;
2011;SDS011;1009;51.436;6.972;2023-07-22T12:03:43;1.90;;;1.70;;
2011;SDS011;1009;51.436;6.972;2023-07-22T12:06:09;3.10;;;1.80;;
2011;SDS011;1009;51.436;6.972;2023-07-22T12:08:37;2.57;;;1.80;;
2011;SDS011;1009;51.436;6.972;2023-07-22T12:11:16;2.50;;;1.73;;
2011;SDS011;1009;51.436;6.972;2023-07-22T12:13:44;2.53;;;1.67;;
2011;SDS011;1009;51.436;6.972;2023-07-22T12:16:20;2.07;;;1.87;;
2011;SDS011;1009;51.436;6.972;2023-07-22T12:18:48;2.00;;;1.40;;
2011;SDS011;1009;51.436;6.972;2023-07-22T12:21:15;4.20;;;1.80;;
2011;SDS011;1009;51.436;6.972;2023-07-22T12:23:45;2.30;;;1.50;;
2011;SDS011;1009;51.436;6.972;2023-07-22T12:26:13;2.60;;;1.77;;
2011;SDS011;1009;51.436;6.972;2023-07-22T12:28:43;2.20;;;1.37;;
2011;SDS011;1009;51.436;6.972;2023-07-22T12:31:10;2.23;;;1.67;;
2011;SDS011;1009;51.436;6.972;2023-07-22T12:33:37;1.30;;;1.20;;
2011;SDS011;1009;51.436;6.972;2023-07-22T12:36:04;2.73;;;1.80;;
2011;SDS011;1009;51.436;6.972;2023-07-22T12:38:31;1.97;;;1.57;;
2011;SDS011;1009;51.436;6.972;2023-07-22T12:40:58;1.90;;;1.50;;
2011;SDS011;1009;51.436;6.972;2023-07-22T12:43:26;2.67;;;1.97;;
2011;SDS011;1009;51.436;6.972;2023-07-22T12:45:54;2.00;;;1.60;;
2011;SDS011;1009;51.436;6.972;2023-07-22T12:48:21;2.27;;;1.77;;
2011;SDS011;1009;51.436;6.972;2023-07-22T12:50:49;1.90;;;1.57;;
2011;SDS011;1009;51.436;6.972;2023-07-22T12:53:16;3.43;;;2.00;;
2011;SDS011;1009;51.436;6.972;2023-07-22T12:55:43;2.20;;;1.73;;
2011;SDS011;1009;51.436;6.972;2023-07-22T12:58:10;3.17;;;2.10;;
2011;SDS011;1009;51.436;6.972;2023-07-22T13:00:37;2.50;;;2.00;;
2011;SDS011;1009;51.436;6.972;2023-07-22T13:03:05;2.50;;;2.00;;
2011;SDS011;1009;51.436;6.972;2023-07-22T13:05:32;2.77;;;2.27;;
2011;SDS011;1009;51.436;6.972;2023-07-22T13:07:58;2.90;;;2.30;;
2011;SDS011;1009;51.436;6.972;2023-07-22T13:10:26;2.60;;;1.80;;
2011;SDS011;1009;51.436;6.972;2023-07-22T13:12:54;2.17;;;1.90;;
2011;SDS011;1009;51.436;6.972;2023-07-22T13:15:20;3.93;;;2.67;;
2011;SDS011;1009;51.436;6.972;2023-07-22T13:17:47;3.43;;;2.33;;
2011;SDS011;1009;51.436;6.972;2023-07-22T13:20:15;2.73;;;2.17;;
2011;SDS011;1009;51.436;6.972;2023-07-22T13:22:42;3.10;;;2.00;;
2011;SDS011;1009;51.436;6.972;2023-07-22T13:25:09;2.47;;;2.03;;
2011;SDS011;1009;51.436;6.972;2023-07-22T13:27:36;2.10;;;1.70;;
2011;SDS011;1009;51.436;6.972;2023-07-22T13:30:06;3.10;;;2.23;;
2011;SDS011;1009;51.436;6.972;2023-07-22T13:32:33;3.70;;;2.13;;
2011;SDS011;1009;51.436;6.972;2023-07-22T13:35:00;3.17;;;1.90;;
2011;SDS011;1009;51.436;6.972;2023-07-22T13:37:28;3.13;;;2.17;;
2011;SDS011;1009;51.436;6.972;2023-07-22T13:39:55;2.20;;;1.87;;
2011;SDS011;1009;51.436;6.972;2023-07-22T13:42:22;1.90;;;1.70;;
2011;SDS011;1009;51.436;6.972;2023-07-22T13:44:49;2.60;;;2.03;;
2011;SDS011;1009;51.436;6.972;2023-07-22T13:47:16;2.60;;;1.60;;
2011;SDS011;1009;51.436;6.972;2023-07-22T13:49:42;4.50;;;1.43;;
2011;SDS011;1009;51.436;6.972;2023-07-22T13:52:09;2.43;;;1.93;;
2011;SDS011;1009;51.436;6.972;2023-07-22T13:54:37;3.00;;;1.90;;
2011;SDS011;1009;51.436;6.972;2023-07-22T13:57:04;2.13;;;1.73;;
2011;SDS011;1009;51.436;6.972;2023-07-22T13:59:32;2.43;;;1.80;;
2011;SDS011;1009;51.436;6.972;2023-07-22T14:01:59;3.03;;;1.70;;
2011;SDS011;1009;51.436;6.972;2023-07-22T14:04:25;3.30;;;2.10;;
2011;SDS011;1009;51.436;6.972;2023-07-22T14:06:52;2.77;;;2.00;;
2011;SDS011;1009;51.436;6.972;2023-07-22T14:09:19;1.93;;;1.70;;
2011;SDS011;1009;51.436;6.972;2023-07-22T14:11:47;1.93;;;1.73;;
2011;SDS011;1009;51.436;6.972;2023-07-22T14:14:14;2.40;;;2.20;;
2011;SDS011;1009;51.436;6.972;2023-07-22T14:16:41;2.50;;;1.90;;
2011;SDS011;1009;51.436;6.972;2023-07-22T14:19:07;3.70;;;2.27;;
2011;SDS011;1009;51.436;6.972;2023-07-22T14:21:34;2.60;;;2.00;;
2011;SDS011;1009;51.436;6.972;2023-07-22T14:24:01;2.93;;;2.10;;
2011;SDS011;1009;51.436;6.972;2023-07-22T14:26:28;3.37;;;2.20;;
2011;SDS011;1009;51.436;6.972;2023-07-22T14:28:56;2.33;;;2.07;;
2011;SDS011;1009;51.436;6.972;2023-07-22T14:31:22;3.23;;;2.43;;
2011;SDS011;1009;51.436;6.972;2023-07-22T14:33:49;3.10;;;2.40;;
2011;SDS011;1009;51.436;6.972;2023-07-22T14:36:16;2.53;;;2.07;;
2011;SDS011;1009;51.436;6.972;2023-07-22T14:38:43;2.80;;;2.03;;
2011;SDS011;1009;51.436;6.972;2023-07-22T14:41:10;6.70;;;1.93;;
2011;SDS011;1009;51.436;6.972;2023-07-22T14:43:37;3.40;;;1.90;;
2011;SDS011;1009;51.436;6.972;2023-07-22T14:46:05;7.10;;;2.90;;
2011;SDS011;1009;51.436;6.972;2023-07-22T14:48:32;2.60;;;2.40;;
2011;SDS011;1009;51.436;6.972;2023-07-22T14:50:59;4.67;;;2.50;;
2011;SDS011;1009;51.436;6.972;2023-07-22T14:53:25;3.30;;;2.37;;
2011;SDS011;1009;51.436;6.972;2023-07-22T14:55:52;2.10;;;1.90;;
2011;SDS011;1009;51.436;6.972;2023-07-22T14:58:19;3.00;;;2.50;;
2011;SDS011;1009;51.436;6.972;2023-07-22T15:00:46;2.87;;;1.83;;
2011;SDS011;1009;51.436;6.972;2023-07-22T15:03:14;2.50;;;1.93;;
2011;SDS011;1009;51.436;6.972;2023-07-22T15:05:41;2.10;;;1.90;;
2011;SDS011;1009;51.436;6.972;2023-07-22T15:08:07;2.90;;;2.27;;
2011;SDS011;1009;51.436;6.972;2023-07-22T15:10:34;2.73;;;2.30;;
2011;SDS011;1009;51.436;6.972;2023-07-22T15:13:01;3.87;;;2.17;;
2011;SDS011;1009;51.436;6.972;2023-07-22T15:15:28;3.60;;;2.53;;
2011;SDS011;1009;51.436;6.972;2023-07-22T15:17:55;3.07;;;2.53;;